Time;durP1;ratioP1;P1;durP2;ratioP2;P2;SDS_P1;SDS_P2;PMS_P1;PMS_P2;Temp;Humidity;BMP_temperature;BMP_pressure;BME280_temperature;BME280_humidity;BME280_pressure;Samples;Min_cycle;Max_cycle;Signal;HPM_P1;HPM_P2
2022/08/21 00:00:20;;;;;;;1.93;1.83;;;28.80;38.00;;;;;;5116607;28;20446;-82
2022/08/21 00:02:52;;;;;;;2.07;1.80;;;28.70;38.00;;;;;;5117185;28;20446;-82
2022/08/21 00:05:21;;;;;;;2.30;2.10;;;28.70;38.10;;;;;;5116484;28;20450;-81
2022/08/21 00:07:49;;;;;;;2.07;1.97;;;28.70;38.00;;;;;;5116519;28;20438;-81
2022/08/21 00:10:18;;;;;;;1.80;1.70;;;28.60;38.20;;;;;;5116562;28;20560;-81
2022/08/21 00:12:46;;;;;;;2.10;1.97;;;28.60;38.00;;;;;;5116997;28;20441;-81
2022/08/21 00:15:16;;;;;;;2.20;2.10;;;28.60;38.10;;;;;;5116689;28;20456;-81
2022/08/21 00:17:44;;;;;;;1.67;1.57;;;28.60;38.10;;;;;;5116335;28;20451;-82
2022/08/21 00:20:14;;;;;;;2.20;1.77;;;28.60;38.10;;;;;;5115923;28;20446;-81
2022/08/21 00:22:43;;;;;;;2.20;1.57;;;28.50;38.10;;;;;;5117206;28;20504;-82
2022/08/21 00:25:12;;;;;;;2.07;1.90;;;28.50;38.10;;;;;;5118297;28;20464;-82
2022/08/21 00:27:42;;;;;;;2.37;2.23;;;28.40;38.10;;;;;;5117528;28;20447;-82
2022/08/21 00:30:12;;;;;;;2.20;1.77;;;28.40;38.10;;;;;;5118177;28;20543;-81
2022/08/21 00:32:50;;;;;;;1.97;1.87;;;28.40;38.10;;;;;;5118606;28;20478;-81
2022/08/21 00:35:19;;;;;;;1.97;1.87;;;28.40;38.20;;;;;;5118955;28;20467;-82
2022/08/21 00:37:49;;;;;;;1.70;1.60;;;28.30;38.10;;;;;;5118848;28;20439;-83
2022/08/21 00:40:18;;;;;;;1.97;1.87;;;28.30;38.10;;;;;;5118973;28;20491;-83
2022/08/21 00:42:47;;;;;;;1.80;1.70;;;28.30;38.10;;;;;;5118928;28;20443;-83
2022/08/21 00:45:20;;;;;;;1.80;1.70;;;28.30;38.20;;;;;;5118564;28;20535;-82
2022/08/21 00:47:49;;;;;;;2.43;2.00;;;28.20;38.00;;;;;;5118222;28;20476;-81
2022/08/21 00:50:17;;;;;;;1.70;1.60;;;28.20;38.10;;;;;;5118422;28;20484;-81
2022/08/21 00:52:50;;;;;;;1.50;1.40;;;28.20;38.10;;;;;;5117190;28;20448;-81
2022/08/21 00:55:18;;;;;;;2.03;1.80;;;28.20;38.10;;;;;;5116650;28;21058;-82
2022/08/21 00:57:50;;;;;;;2.47;1.80;;;28.10;38.20;;;;;;5116748;28;20440;-83
2022/08/21 01:00:23;;;;;;;2.00;1.90;;;28.10;38.30;;;;;;5116960;28;21019;-82
2022/08/21 01:02:51;;;;;;;1.60;1.50;;;28.10;38.20;;;;;;5117816;28;20446;-83
2022/08/21 01:05:19;;;;;;;2.40;1.67;;;28.00;38.20;;;;;;5117690;28;20442;-82
2022/08/21 01:07:48;;;;;;;1.67;1.57;;;28.00;38.30;;;;;;5117381;28;20447;-82
2022/08/21 01:10:18;;;;;;;1.70;1.60;;;28.00;38.40;;;;;;5116305;28;20503;-81
2022/08/21 01:12:55;;;;;;;2.10;2.00;;;28.00;38.20;;;;;;5116508;28;20892;-82
2022/08/21 01:15:23;;;;;;;1.63;1.53;;;27.90;38.20;;;;;;5116411;28;20438;-82
2022/08/21 01:17:51;;;;;;;3.30;1.63;;;28.00;38.30;;;;;;5116331;28;20497;-82
2022/08/21 01:20:19;;;;;;;1.67;1.50;;;27.90;38.10;;;;;;5117286;28;20442;-83
2022/08/21 01:22:49;;;;;;;1.57;1.47;;;27.90;38.20;;;;;;5119638;28;20425;-83
2022/08/21 01:25:19;;;;;;;1.73;1.63;;;27.80;38.20;;;;;;5119639;27;20537;-82
2022/08/21 01:27:47;;;;;;;1.80;1.70;;;27.80;38.30;;;;;;5119448;27;20452;-82
2022/08/21 01:30:16;;;;;;;1.90;1.80;;;27.80;38.30;;;;;;5119324;28;20439;-82
2022/08/21 01:32:44;;;;;;;1.67;1.50;;;27.80;38.40;;;;;;5118674;28;20443;-82
2022/08/21 01:35:13;;;;;;;1.70;1.60;;;27.70;38.30;;;;;;5118908;28;20458;-83
2022/08/21 01:37:41;;;;;;;2.63;1.93;;;27.70;38.40;;;;;;5119293;28;20443;-82
2022/08/21 01:40:12;;;;;;;2.60;1.60;;;27.70;38.30;;;;;;5118918;28;20446;-83
2022/08/21 01:42:40;;;;;;;3.10;1.90;;;27.70;38.20;;;;;;5118457;28;20443;-82
2022/08/21 01:45:09;;;;;;;1.50;1.40;;;27.70;38.40;;;;;;5118490;28;20498;-82
2022/08/21 01:47:37;;;;;;;2.77;1.77;;;27.70;38.50;;;;;;5118339;28;20424;-82
2022/08/21 01:50:06;;;;;;;1.60;1.50;;;27.70;38.40;;;;;;5118429;28;20419;-83
2022/08/21 01:52:34;;;;;;;1.60;1.50;;;27.60;38.50;;;;;;5118429;27;20492;-82
2022/08/21 01:55:03;;;;;;;2.53;1.90;;;27.60;38.40;;;;;;5118297;28;20460;-83
2022/08/21 01:57:35;;;;;;;1.90;1.80;;;27.50;38.40;;;;;;5118637;28;20444;-82
2022/08/21 02:00:05;;;;;;;2.03;1.57;;;27.50;38.50;;;;;;5119070;28;20505;-82
2022/08/21 02:02:33;;;;;;;2.40;1.90;;;27.60;38.40;;;;;;5119442;27;20418;-82
2022/08/21 02:05:03;;;;;;;2.60;1.60;;;27.50;38.20;;;;;;5120349;28;20489;-82
2022/08/21 02:07:37;;;;;;;1.60;1.50;;;27.50;39.10;;;;;;5119726;28;20415;-83
2022/08/21 02:10:06;;;;;;;1.60;1.53;;;27.40;38.30;;;;;;5118625;28;21179;-83
2022/08/21 02:12:36;;;;;;;1.70;1.60;;;27.40;38.40;;;;;;5127522;28;20415;-83
2022/08/21 02:15:05;;;;;;;2.40;1.77;;;27.40;38.40;;;;;;5121957;28;20446;-83
2022/08/21 02:17:39;;;;;;;2.37;1.87;;;27.30;38.50;;;;;;5122545;28;20422;-83
2022/08/21 02:20:12;;;;;;;1.63;1.53;;;27.30;38.40;;;;;;5122151;28;20526;-83
2022/08/21 02:22:43;;;;;;;1.57;1.47;;;27.30;38.60;;;;;;5122591;28;20418;-83
2022/08/21 02:25:17;;;;;;;1.70;1.60;;;27.30;38.70;;;;;;5122500;28;20460;-83
2022/08/21 02:27:47;;;;;;;1.80;1.70;;;27.30;38.60;;;;;;5122248;28;20426;-83
2022/08/21 02:30:19;;;;;;;1.60;1.50;;;27.30;38.70;;;;;;5121081;28;20442;-83
2022/08/21 02:32:47;;;;;;;1.77;1.67;;;27.30;38.50;;;;;;5123262;28;20961;-82
2022/08/21 02:35:18;;;;;;;2.13;1.60;;;27.30;38.60;;;;;;5125993;28;20466;-82
2022/08/21 02:37:55;;;;;;;1.80;1.70;;;27.30;38.60;;;;;;5125860;28;20429;-83
2022/08/21 02:40:33;;;;;;;1.70;1.60;;;27.30;38.70;;;;;;5119683;27;20475;-83
2022/08/21 02:43:11;;;;;;;1.47;1.37;;;27.20;38.60;;;;;;5120304;28;20497;-83
2022/08/21 02:45:40;;;;;;;1.90;1.80;;;27.20;38.70;;;;;;5119939;28;20480;-83
2022/08/21 02:48:10;;;;;;;2.80;1.40;;;27.20;38.70;;;;;;5120192;28;20527;-83
2022/08/21 02:50:40;;;;;;;1.83;1.73;;;27.20;38.70;;;;;;5119973;28;20441;-83
2022/08/21 02:53:08;;;;;;;1.80;1.70;;;27.10;38.60;;;;;;5120004;28;20473;-82
2022/08/21 02:55:37;;;;;;;3.60;1.37;;;27.10;38.70;;;;;;5118732;28;20472;-83
2022/08/21 02:58:06;;;;;;;1.67;1.57;;;27.10;38.90;;;;;;5119341;28;20450;-83
2022/08/21 03:00:35;;;;;;;1.70;1.60;;;27.00;38.70;;;;;;5118829;27;20471;-83
2022/08/21 03:03:04;;;;;;;1.33;1.23;;;27.00;38.60;;;;;;5120464;28;20443;-83
2022/08/21 03:05:32;;;;;;;1.67;1.57;;;27.00;38.70;;;;;;5119398;28;20442;-82
2022/08/21 03:08:01;;;;;;;4.60;1.70;;;26.90;38.80;;;;;;5120138;28;20466;-83
2022/08/21 03:10:30;;;;;;;1.67;1.57;;;26.90;38.90;;;;;;5119433;28;20531;-83
2022/08/21 03:12:58;;;;;;;1.80;1.43;;;26.90;38.80;;;;;;5119643;28;20418;-82
2022/08/21 03:15:26;;;;;;;1.70;1.60;;;26.90;38.70;;;;;;5119076;28;20468;-83
2022/08/21 03:17:56;;;;;;;2.47;1.57;;;26.80;38.80;;;;;;5119370;28;20450;-83
2022/08/21 03:20:25;;;;;;;1.80;1.70;;;26.80;38.80;;;;;;5119016;28;20986;-83
2022/08/21 03:22:54;;;;;;;1.60;1.50;;;26.80;38.80;;;;;;5119184;28;20453;-82
2022/08/21 03:25:22;;;;;;;1.37;1.20;;;26.70;38.60;;;;;;5118953;28;20464;-83
2022/08/21 03:28:09;;;;;;;1.23;1.13;;;26.70;38.80;;;;;;5119407;27;20456;-83
2022/08/21 03:30:40;;;;;;;2.50;1.67;;;26.70;39.00;;;;;;5119043;28;20439;-83
2022/08/21 03:33:09;;;;;;;1.63;1.53;;;26.70;38.90;;;;;;5118856;28;20419;-82
2022/08/21 03:35:42;;;;;;;1.60;1.50;;;26.60;38.90;;;;;;5118743;28;20455;-82
2022/08/21 03:38:11;;;;;;;3.93;1.50;;;26.60;39.00;;;;;;5118844;28;20452;-82
2022/08/21 03:40:39;;;;;;;1.67;1.57;;;26.60;38.90;;;;;;5119388;28;20468;-81
2022/08/21 03:43:08;;;;;;;1.60;1.50;;;26.60;39.00;;;;;;5120277;28;20445;-83
2022/08/21 03:45:37;;;;;;;1.67;1.57;;;26.50;39.00;;;;;;5121987;28;20458;-84
2022/08/21 03:48:05;;;;;;;1.70;1.60;;;26.50;39.10;;;;;;5122442;28;20468;-84
2022/08/21 03:50:37;;;;;;;1.40;1.40;;;26.50;39.20;;;;;;5122830;28;20446;-84
2022/08/21 03:53:08;;;;;;;2.07;1.57;;;26.50;39.00;;;;;;5122261;28;20482;-84
2022/08/21 03:55:45;;;;;;;2.27;1.80;;;26.50;39.00;;;;;;5121785;28;20830;-84
2022/08/21 03:58:13;;;;;;;1.60;1.50;;;26.50;39.10;;;;;;5119964;28;20472;-84
2022/08/21 04:00:44;;;;;;;1.73;1.63;;;26.50;39.00;;;;;;5119953;28;20479;-84
2022/08/21 04:03:12;;;;;;;2.60;1.80;;;26.40;38.90;;;;;;5118081;28;20451;-83
2022/08/21 04:05:42;;;;;;;1.57;1.47;;;26.40;39.10;;;;;;5118147;27;20469;-82
2022/08/21 04:08:10;;;;;;;2.57;1.80;;;26.40;39.10;;;;;;5118492;28;20482;-83
2022/08/21 04:10:38;;;;;;;1.80;1.70;;;26.40;39.40;;;;;;5118169;28;20446;-83
2022/08/21 04:13:07;;;;;;;1.70;1.60;;;26.30;39.20;;;;;;5118226;28;20450;-82
2022/08/21 04:15:35;;;;;;;1.60;1.50;;;26.30;39.20;;;;;;5119166;28;20438;-82
2022/08/21 04:18:03;;;;;;;1.40;1.40;;;26.30;39.20;;;;;;5119228;28;20469;-82
2022/08/21 04:20:31;;;;;;;1.70;1.57;;;26.30;39.20;;;;;;5118263;28;21078;-82
2022/08/21 04:23:01;;;;;;;1.60;1.50;;;26.20;39.10;;;;;;5118815;28;20475;-82
2022/08/21 04:25:29;;;;;;;5.77;1.73;;;26.20;39.20;;;;;;5119586;28;20442;-82
2022/08/21 04:27:57;;;;;;;1.70;1.50;;;26.10;39.20;;;;;;5118761;28;20433;-82
2022/08/21 04:30:26;;;;;;;2.23;1.70;;;26.10;39.20;;;;;;5119327;28;20962;-82
2022/08/21 04:32:56;;;;;;;1.40;1.40;;;26.10;39.20;;;;;;5119022;28;20414;-82
2022/08/21 04:35:25;;;;;;;2.70;1.47;;;26.10;39.30;;;;;;5117931;28;20452;-82
2022/08/21 04:37:53;;;;;;;1.63;1.53;;;26.10;39.20;;;;;;5118212;28;20505;-82
2022/08/21 04:40:23;;;;;;;1.73;1.50;;;26.00;39.20;;;;;;5117917;28;20517;-82
2022/08/21 04:42:53;;;;;;;1.60;1.50;;;26.10;39.30;;;;;;5118090;28;20475;-82
2022/08/21 04:45:23;;;;;;;1.80;1.70;;;26.00;39.20;;;;;;5118247;28;20494;-82
2022/08/21 04:47:51;;;;;;;1.60;1.50;;;26.00;39.40;;;;;;5118129;28;20486;-82
2022/08/21 04:50:20;;;;;;;3.30;1.57;;;26.00;39.20;;;;;;5118431;28;20444;-82
2022/08/21 04:52:48;;;;;;;2.00;1.67;;;26.00;39.30;;;;;;5117994;28;20444;-82
2022/08/21 04:55:17;;;;;;;1.57;1.47;;;26.00;39.30;;;;;;5120929;28;20438;-82
2022/08/21 04:57:46;;;;;;;1.80;1.70;;;25.90;39.40;;;;;;5121709;28;20419;-82
2022/08/21 05:00:19;;;;;;;2.33;1.43;;;25.90;39.30;;;;;;5122114;28;20390;-82
2022/08/21 05:02:47;;;;;;;2.07;1.87;;;25.90;39.40;;;;;;5121947;28;20483;-82
2022/08/21 05:05:15;;;;;;;1.70;1.60;;;25.80;39.40;;;;;;5121763;28;20463;-81
2022/08/21 05:07:44;;;;;;;1.53;1.43;;;25.80;39.60;;;;;;5122159;28;20422;-82
2022/08/21 05:10:12;;;;;;;2.53;2.33;;;25.80;39.60;;;;;;5122261;28;20492;-82
2022/08/21 05:12:43;;;;;;;1.67;1.57;;;25.70;39.70;;;;;;5121536;28;20398;-82
2022/08/21 05:15:12;;;;;;;1.93;1.83;;;25.80;39.60;;;;;;5121679;28;20496;-81
2022/08/21 05:17:40;;;;;;;2.20;1.70;;;25.70;39.60;;;;;;5122131;28;20418;-82
2022/08/21 05:20:09;;;;;;;1.60;1.50;;;25.70;39.60;;;;;;5121917;28;20461;-82
2022/08/21 05:22:41;;;;;;;2.00;1.80;;;25.70;39.70;;;;;;5121074;28;20477;-81
2022/08/21 05:25:15;;;;;;;1.77;1.67;;;25.70;39.50;;;;;;5125402;28;20852;-82
2022/08/21 05:27:51;;;;;;;1.70;1.60;;;25.70;39.60;;;;;;5120875;28;20478;-82
2022/08/21 05:30:31;;;;;;;2.60;1.57;;;25.60;39.70;;;;;;5120269;28;20443;-82
2022/08/21 05:33:02;;;;;;;1.50;1.40;;;25.70;39.80;;;;;;5120706;28;20414;-82
2022/08/21 05:35:40;;;;;;;3.23;2.00;;;25.60;39.70;;;;;;5121392;28;20434;-82
2022/08/21 05:38:14;;;;;;;2.20;2.03;;;25.60;39.60;;;;;;5121505;27;20441;-82
2022/08/21 05:40:46;;;;;;;2.00;1.90;;;25.60;39.90;;;;;;5120522;28;20418;-82
2022/08/21 05:43:18;;;;;;;1.83;1.73;;;25.60;39.80;;;;;;5120692;28;20449;-82
2022/08/21 05:45:54;;;;;;;3.03;1.70;;;25.60;39.90;;;;;;5121472;28;20442;-82
2022/08/21 05:48:24;;;;;;;1.97;1.87;;;25.50;39.80;;;;;;5121596;28;20917;-82
2022/08/21 05:50:52;;;;;;;2.63;1.83;;;25.60;40.10;;;;;;5122105;28;20427;-81
2022/08/21 05:53:24;;;;;;;1.73;1.60;;;25.60;39.90;;;;;;5121128;28;20411;-81
2022/08/21 05:55:54;;;;;;;1.90;1.80;;;25.60;39.90;;;;;;5121173;28;20467;-82
2022/08/21 05:58:28;;;;;;;4.83;2.50;;;25.50;40.00;;;;;;5120913;28;20930;-81
2022/08/21 06:01:06;;;;;;;2.00;1.80;;;25.60;40.10;;;;;;5119993;27;20469;-81
2022/08/21 06:03:45;;;;;;;2.03;1.93;;;25.60;40.10;;;;;;5120836;28;20484;-81
2022/08/21 06:06:23;;;;;;;2.23;1.80;;;25.60;40.20;;;;;;5119765;28;20470;-81
2022/08/21 06:08:52;;;;;;;2.30;1.70;;;25.60;40.20;;;;;;5119944;28;20414;-82
2022/08/21 06:11:35;;;;;;;2.40;2.20;;;25.60;39.90;;;;;;5120555;28;20448;-82
2022/08/21 06:14:10;;;;;;;4.53;2.10;;;25.70;39.90;;;;;;5120564;28;20470;-81
2022/08/21 06:16:49;;;;;;;1.50;1.50;;;25.70;40.10;;;;;;5120084;28;20485;-81
2022/08/21 06:19:17;;;;;;;2.57;1.70;;;25.80;39.90;;;;;;5120056;28;20444;-81
2022/08/21 06:21:46;;;;;;;2.30;2.10;;;25.80;39.80;;;;;;5119912;28;20497;-81
2022/08/21 06:24:21;;;;;;;2.13;2.00;;;25.90;39.80;;;;;;5119950;28;20504;-82
2022/08/21 06:26:51;;;;;;;3.03;1.83;;;26.00;40.00;;;;;;5120465;28;20528;-82
2022/08/21 06:29:19;;;;;;;2.70;1.80;;;26.10;39.80;;;;;;5120410;27;20451;-82
2022/08/21 06:31:49;;;;;;;3.13;1.87;;;26.10;39.70;;;;;;5120077;28;20439;-82
2022/08/21 06:34:19;;;;;;;1.80;1.70;;;26.30;39.70;;;;;;5120782;28;20494;-82
2022/08/21 06:36:48;;;;;;;2.00;1.90;;;26.40;39.60;;;;;;5120504;28;20444;-82
2022/08/21 06:39:19;;;;;;;4.10;2.00;;;26.50;39.40;;;;;;5120660;28;20506;-82
2022/08/21 06:41:52;;;;;;;1.90;1.80;;;26.60;39.40;;;;;;5121116;28;20418;-82
2022/08/21 06:44:20;;;;;;;1.80;1.70;;;26.70;39.20;;;;;;5120173;28;20466;-82
2022/08/21 06:46:50;;;;;;;2.23;1.90;;;26.70;39.30;;;;;;5120179;28;20430;-82
2022/08/21 06:49:18;;;;;;;2.33;2.13;;;26.80;39.30;;;;;;5120587;28;20448;-82
2022/08/21 06:51:48;;;;;;;2.97;2.30;;;26.90;39.00;;;;;;5120566;28;20470;-82
2022/08/21 06:54:16;;;;;;;2.83;2.00;;;27.00;39.00;;;;;;5120082;28;20475;-82
2022/08/21 06:59:30;;;;;;;4.10;2.43;;;27.00;38.80;;;;;;5119726;28;20414;-82
2022/08/21 07:02:06;;;;;;;3.50;2.00;;;27.10;39.10;;;;;;5119794;28;20423;-82
2022/08/21 07:04:37;;;;;;;2.63;2.50;;;27.30;39.10;;;;;;5120283;28;20438;-82
2022/08/21 07:07:05;;;;;;;2.30;1.97;;;27.30;39.00;;;;;;5119591;28;20426;-82
2022/08/21 07:09:33;;;;;;;2.43;1.87;;;27.40;39.00;;;;;;5120201;28;20451;-82
2022/08/21 07:12:06;;;;;;;3.33;2.03;;;27.40;38.50;;;;;;5120336;28;20440;-82
2022/08/21 07:14:34;;;;;;;2.73;2.27;;;27.50;38.50;;;;;;5120144;28;20472;-82
2022/08/21 07:17:04;;;;;;;3.83;2.27;;;27.70;38.50;;;;;;5122299;28;20455;-81
2022/08/21 07:19:32;;;;;;;2.53;2.10;;;27.80;38.30;;;;;;5123868;28;20440;-81
2022/08/21 07:22:01;;;;;;;2.03;1.83;;;27.90;38.00;;;;;;5123384;28;20473;-82
2022/08/21 07:24:29;;;;;;;4.77;1.97;;;28.10;37.90;;;;;;5119165;28;20480;-82
2022/08/21 07:26:57;;;;;;;2.97;2.10;;;28.20;37.90;;;;;;5120082;28;20457;-82
2022/08/21 07:29:26;;;;;;;2.73;2.50;;;28.40;37.80;;;;;;5119745;28;20486;-82
2022/08/21 07:31:54;;;;;;;4.80;1.90;;;28.40;37.70;;;;;;5119933;28;20426;-82
2022/08/21 07:34:23;;;;;;;1.83;1.73;;;28.60;38.00;;;;;;5120222;28;20430;-82
2022/08/21 07:36:52;;;;;;;2.00;1.80;;;28.60;37.80;;;;;;5120048;28;20418;-82
2022/08/21 07:39:20;;;;;;;7.97;2.07;;;28.70;37.90;;;;;;5120866;28;20427;-81
2022/08/21 07:41:48;;;;;;;2.97;1.80;;;28.80;37.80;;;;;;5120938;28;20485;-81
2022/08/21 07:44:16;;;;;;;3.70;1.90;;;28.90;37.70;;;;;;5120561;28;20484;-81
2022/08/21 07:46:44;;;;;;;2.40;2.00;;;29.00;37.80;;;;;;5119992;28;20444;-81
2022/08/21 07:49:12;;;;;;;2.13;2.03;;;29.10;37.80;;;;;;5120029;28;20511;-81
2022/08/21 07:51:41;;;;;;;4.13;2.13;;;29.20;37.90;;;;;;5119982;28;20452;-82
2022/08/21 07:54:09;;;;;;;3.03;1.80;;;29.50;37.70;;;;;;5119811;28;20440;-81
2022/08/21 07:56:43;;;;;;;1.83;1.73;;;29.60;37.70;;;;;;5118899;28;20443;-81
2022/08/21 07:59:12;;;;;;;1.70;1.60;;;29.80;37.60;;;;;;5119854;28;20510;-81
2022/08/21 08:01:40;;;;;;;2.90;2.10;;;29.80;37.60;;;;;;5120049;28;20480;-82
2022/08/21 08:04:08;;;;;;;3.00;1.97;;;30.00;37.60;;;;;;5119380;28;20472;-81
2022/08/21 08:06:36;;;;;;;2.37;1.90;;;30.00;37.70;;;;;;5119450;28;20445;-82
2022/08/21 08:09:06;;;;;;;2.50;1.40;;;30.20;37.70;;;;;;5119649;28;20453;-81
2022/08/21 08:11:34;;;;;;;1.80;1.60;;;30.30;37.90;;;;;;5119728;28;20426;-82
2022/08/21 08:14:03;;;;;;;5.30;1.90;;;30.30;37.90;;;;;;5119612;28;20460;-82
2022/08/21 08:16:31;;;;;;;1.67;1.57;;;30.50;37.90;;;;;;5119311;28;20443;-82
2022/08/21 08:18:59;;;;;;;1.50;1.40;;;30.60;38.00;;;;;;5119852;28;20508;-82
2022/08/21 08:21:27;;;;;;;1.67;1.57;;;30.70;37.90;;;;;;5119494;28;20467;-82
2022/08/21 08:23:56;;;;;;;2.00;1.57;;;30.80;38.00;;;;;;5119270;28;20472;-82
2022/08/21 08:26:25;;;;;;;2.37;1.50;;;30.80;38.20;;;;;;5119361;28;20444;-82
2022/08/21 08:28:53;;;;;;;2.03;1.73;;;30.90;38.30;;;;;;5118968;28;20467;-82
2022/08/21 08:31:21;;;;;;;5.27;1.97;;;31.00;38.30;;;;;;5119062;28;20497;-82
2022/08/21 08:33:49;;;;;;;2.47;2.27;;;31.20;38.30;;;;;;5117585;28;20519;-81
2022/08/21 08:36:18;;;;;;;1.97;1.87;;;31.20;38.20;;;;;;5125594;28;20447;-82
2022/08/21 08:38:47;;;;;;;2.73;1.77;;;31.40;38.00;;;;;;5117673;28;20448;-82
2022/08/21 08:41:17;;;;;;;1.70;1.40;;;31.50;38.10;;;;;;5118465;28;20474;-82
2022/08/21 08:43:50;;;;;;;5.83;1.73;;;31.70;38.00;;;;;;5118266;28;20467;-82
2022/08/21 08:46:26;;;;;;;2.47;1.93;;;31.70;38.10;;;;;;5118375;28;20472;-82
2022/08/21 08:48:56;;;;;;;1.47;1.40;;;31.80;38.20;;;;;;5118557;28;20443;-82
2022/08/21 08:51:26;;;;;;;2.70;1.87;;;32.00;38.10;;;;;;5118610;28;20470;-82
2022/08/21 08:53:56;;;;;;;1.60;1.40;;;32.20;38.00;;;;;;5118573;28;20460;-82
2022/08/21 08:56:29;;;;;;;3.70;1.60;;;32.30;37.90;;;;;;5119515;28;20461;-83
2022/08/21 08:59:01;;;;;;;1.57;1.30;;;32.40;37.80;;;;;;5118918;28;20451;-82
2022/08/21 09:01:30;;;;;;;1.70;1.60;;;32.70;37.60;;;;;;5120125;28;20448;-83
2022/08/21 09:04:05;;;;;;;2.23;1.70;;;32.90;37.40;;;;;;5121436;28;20494;-83
2022/08/21 09:06:55;;;;;;;1.40;1.30;;;32.90;37.30;;;;;;5122565;28;20448;-83
2022/08/21 09:09:34;;;;;;;2.27;1.80;;;33.10;37.30;;;;;;5121961;28;20455;-83
2022/08/21 09:12:04;;;;;;;1.57;1.47;;;33.30;37.10;;;;;;5122760;28;20420;-83
2022/08/21 09:14:46;;;;;;;1.60;1.50;;;33.50;37.00;;;;;;5127288;28;20455;-84
2022/08/21 09:17:20;;;;;;;1.90;1.37;;;33.60;36.80;;;;;;5126289;28;20443;-84
2022/08/21 09:19:57;;;;;;;3.50;1.40;;;33.90;36.70;;;;;;5127019;28;20459;-84
2022/08/21 09:22:30;;;;;;;2.10;1.40;;;34.20;36.50;;;;;;5125812;28;20514;-84
2022/08/21 09:25:07;;;;;;;3.60;1.37;;;34.20;36.30;;;;;;5126135;28;20479;-84
2022/08/21 09:27:35;;;;;;;1.73;1.50;;;34.30;36.00;;;;;;5123921;28;20519;-84
2022/08/21 09:30:06;;;;;;;1.53;1.37;;;34.40;35.90;;;;;;5122659;28;20879;-84
2022/08/21 09:32:34;;;;;;;1.43;1.37;;;34.40;35.80;;;;;;5120037;28;20474;-82
2022/08/21 09:35:07;;;;;;;1.37;1.30;;;34.30;35.80;;;;;;5118558;28;20460;-84
2022/08/21 09:37:45;;;;;;;1.53;1.37;;;34.40;35.80;;;;;;5118573;28;20463;-83
2022/08/21 09:40:40;;;;;;;2.80;1.63;;;34.50;35.30;;;;;;5117439;28;20471;-83
2022/08/21 09:43:17;;;;;;;1.20;1.10;;;34.50;35.50;;;;;;5121978;28;20440;-83
2022/08/21 09:45:47;;;;;;;2.73;1.60;;;34.30;36.00;;;;;;5121997;28;20471;-83
2022/08/21 09:48:18;;;;;;;1.43;1.33;;;34.40;35.90;;;;;;5122223;27;20459;-83
2022/08/21 09:50:47;;;;;;;1.60;1.40;;;34.50;36.00;;;;;;5121685;28;20432;-83
2022/08/21 09:53:20;;;;;;;1.53;1.27;;;34.80;35.80;;;;;;5120168;28;20440;-83
2022/08/21 09:58:37;;;;;;;1.20;1.20;;;35.40;35.00;;;;;;5120193;28;20523;-83
2022/08/21 10:01:06;;;;;;;1.20;1.10;;;35.80;34.90;;;;;;5120511;28;20440;-83
2022/08/21 10:03:35;;;;;;;1.60;1.47;;;35.90;34.70;;;;;;5119775;28;20539;-83
2022/08/21 10:06:05;;;;;;;4.00;1.33;;;36.10;34.40;;;;;;5119945;28;20500;-83
2022/08/21 10:08:37;;;;;;;1.30;1.20;;;36.30;34.20;;;;;;5120500;28;20498;-83
2022/08/21 10:11:06;;;;;;;1.77;1.33;;;36.60;34.00;;;;;;5120217;28;20478;-83
2022/08/21 10:13:45;;;;;;;1.50;1.40;;;36.80;33.70;;;;;;5119803;27;20480;-83
2022/08/21 10:16:25;;;;;;;1.17;1.17;;;37.00;33.50;;;;;;5119495;28;20473;-83
2022/08/21 10:19:02;;;;;;;2.10;1.20;;;37.10;33.40;;;;;;5120788;28;20444;-83
2022/08/21 10:21:33;;;;;;;2.00;1.33;;;37.10;33.20;;;;;;5120196;28;20519;-83
2022/08/21 10:24:04;;;;;;;1.70;1.60;;;37.10;33.20;;;;;;5119819;28;20501;-83
2022/08/21 10:26:43;;;;;;;2.50;1.50;;;37.20;33.10;;;;;;5119892;27;20473;-84
2022/08/21 10:29:16;;;;;;;1.50;1.40;;;37.20;33.20;;;;;;5120145;28;20436;-84
2022/08/21 10:31:49;;;;;;;1.30;1.27;;;37.10;33.10;;;;;;5119682;28;20448;-83
2022/08/21 10:34:28;;;;;;;1.27;1.20;;;37.30;32.90;;;;;;5119703;28;20456;-84
2022/08/21 10:37:03;;;;;;;6.83;1.60;;;37.30;32.90;;;;;;5119847;28;20838;-83
2022/08/21 10:39:41;;;;;;;1.90;1.27;;;37.20;33.00;;;;;;5118632;28;20466;-83
2022/08/21 10:42:29;;;;;;;2.60;1.20;;;37.30;33.10;;;;;;5119526;28;20431;-83
2022/08/21 10:45:03;;;;;;;1.40;1.30;;;37.50;33.10;;;;;;5119105;28;20497;-83
2022/08/21 10:47:35;;;;;;;2.00;1.10;;;37.80;32.80;;;;;;5119634;28;20794;-83
2022/08/21 10:50:09;;;;;;;1.27;1.20;;;38.10;32.50;;;;;;5119248;28;20876;-83
2022/08/21 10:52:46;;;;;;;1.67;1.30;;;38.50;32.20;;;;;;5119279;28;20466;-83
2022/08/21 10:55:16;;;;;;;1.50;1.40;;;38.80;31.90;;;;;;5119589;28;20486;-83
2022/08/21 10:57:47;;;;;;;1.23;1.23;;;39.10;31.60;;;;;;5120484;28;20539;-81
2022/08/21 11:00:17;;;;;;;1.60;1.50;;;39.30;31.50;;;;;;5119696;28;20440;-81
2022/08/21 11:02:50;;;;;;;1.43;1.33;;;39.60;31.30;;;;;;5118503;28;20455;-81
2022/08/21 11:05:19;;;;;;;1.70;1.13;;;39.90;31.00;;;;;;5119194;28;20478;-81
2022/08/21 11:07:49;;;;;;;1.60;1.50;;;40.10;30.70;;;;;;5119435;28;20443;-82
2022/08/21 11:10:20;;;;;;;1.23;1.23;;;40.40;30.50;;;;;;5118846;28;20450;-82
2022/08/21 11:12:49;;;;;;;1.30;1.30;;;40.60;30.40;;;;;;5118448;28;20484;-80
2022/08/21 11:15:26;;;;;;;1.23;1.23;;;40.80;30.20;;;;;;5117760;28;20460;-80
2022/08/21 11:18:02;;;;;;;1.20;1.20;;;41.00;30.00;;;;;;5118016;28;20447;-81
2022/08/21 11:20:31;;;;;;;1.40;1.13;;;40.90;29.90;;;;;;5117715;28;20445;-80
2022/08/21 11:23:02;;;;;;;1.50;1.40;;;41.40;29.80;;;;;;5118149;28;20534;-80
2022/08/21 11:25:33;;;;;;;1.57;1.10;;;42.40;29.10;;;;;;5118629;28;20478;-81
2022/08/21 11:28:06;;;;;;;1.10;1.10;;;43.50;28.00;;;;;;5118699;28;21003;-81
2022/08/21 11:30:45;;;;;;;1.03;1.03;;;44.60;27.20;;;;;;5118647;28;20534;-81
2022/08/21 11:33:23;;;;;;;0.80;0.80;;;45.60;26.30;;;;;;5118947;28;20502;-81
2022/08/21 11:35:52;;;;;;;0.73;0.73;;;46.50;25.60;;;;;;5119040;28;20469;-81
2022/08/21 11:38:28;;;;;;;1.20;1.13;;;47.10;25.30;;;;;;5120485;28;20474;-81
2022/08/21 11:41:12;;;;;;;0.85;0.85;;;47.70;25.00;;;;;;5120324;28;20435;-82
2022/08/21 11:43:42;;;;;;;0.80;0.80;;;48.30;24.60;;;;;;5120085;28;20205;-82
2022/08/21 11:46:19;;;;;;;0.95;0.95;;;48.80;24.20;;;;;;5120568;28;20210;-82
2022/08/21 11:48:55;;;;;;;1.02;0.93;;;49.10;24.00;;;;;;5124168;28;20237;-81
2022/08/21 11:51:26;;;;;;;1.02;0.73;;;49.60;23.70;;;;;;5121580;28;20218;-81
2022/08/21 11:53:58;;;;;;;0.88;0.88;;;50.10;23.40;;;;;;5120183;28;20215;-82
2022/08/21 11:56:27;;;;;;;0.90;0.90;;;50.30;23.30;;;;;;5121009;28;20577;-82
2022/08/21 11:58:57;;;;;;;4.50;0.90;;;50.40;23.10;;;;;;5120728;28;20290;-81
2022/08/21 12:01:27;;;;;;;0.93;0.80;;;51.60;22.00;;;;;;5121352;28;20267;-82
2022/08/21 12:04:02;;;;;;;0.73;0.73;;;52.40;21.70;;;;;;5120657;28;20230;-82
2022/08/21 12:06:31;;;;;;;0.70;0.70;;;53.10;21.10;;;;;;5123606;28;20313;-81
2022/08/21 12:09:00;;;;;;;0.60;0.60;;;53.90;20.50;;;;;;5126396;28;20222;-81
2022/08/21 12:11:28;;;;;;;0.50;0.50;;;53.90;20.40;;;;;;5125234;28;20195;-82
2022/08/21 12:13:59;;;;;;;0.70;0.70;;;53.90;20.60;;;;;;5120466;28;20243;-82
2022/08/21 12:16:31;;;;;;;0.70;0.70;;;54.20;20.50;;;;;;5120526;28;20226;-81
2022/08/21 12:19:08;;;;;;;0.65;0.65;;;54.20;20.20;;;;;;5120554;28;20266;-81
2022/08/21 12:21:48;;;;;;;0.80;0.80;;;53.40;20.70;;;;;;5118991;28;20245;-81
2022/08/21 12:24:18;;;;;;;0.70;0.70;;;50.40;22.10;;;;;;5118514;28;20657;-81
2022/08/21 12:26:51;;;;;;;0.77;0.77;;;48.60;23.70;;;;;;5118478;28;20219;-82
2022/08/21 12:29:23;;;;;;;0.70;0.70;;;50.00;22.80;;;;;;5118783;28;20210;-81
2022/08/21 12:31:56;;;;;;;0.73;0.73;;;51.40;21.70;;;;;;5118686;28;20231;-81
2022/08/21 12:34:30;;;;;;;0.70;0.70;;;50.80;21.20;;;;;;5117852;28;20247;-81
2022/08/21 12:37:00;;;;;;;0.80;0.80;;;49.90;22.60;;;;;;5117849;28;20205;-80
2022/08/21 12:39:30;;;;;;;0.70;0.70;;;49.90;22.60;;;;;;5119060;28;20258;-81
2022/08/21 12:42:00;;;;;;;0.77;0.77;;;51.10;21.60;;;;;;5118996;28;20290;-81
2022/08/21 12:44:32;;;;;;;0.60;0.60;;;52.20;21.00;;;;;;5118760;28;20224;-81
2022/08/21 12:47:03;;;;;;;0.60;0.60;;;53.10;20.60;;;;;;5119870;28;20305;-81
2022/08/21 12:49:34;;;;;;;0.70;0.70;;;53.70;20.10;;;;;;5119650;28;20202;-81
2022/08/21 12:52:04;;;;;;;0.52;0.52;;;54.20;19.80;;;;;;5121302;28;20223;-81
2022/08/21 12:54:33;;;;;;;0.60;0.60;;;54.50;19.40;;;;;;5121112;28;20226;-82
2022/08/21 12:57:02;;;;;;;0.52;0.52;;;54.90;19.40;;;;;;5120471;28;20195;-81
2022/08/21 12:59:30;;;;;;;0.50;0.50;;;55.20;19.20;;;;;;5121166;28;20634;-81
2022/08/21 13:01:59;;;;;;;0.50;0.50;;;55.60;19.00;;;;;;5119955;28;20203;-81
2022/08/21 13:04:36;;;;;;;0.50;0.50;;;55.80;18.80;;;;;;5120301;28;20215;-81
2022/08/21 13:07:10;;;;;;;0.60;0.60;;;55.90;18.80;;;;;;5120680;28;20240;-81
2022/08/21 13:09:47;;;;;;;0.60;0.60;;;56.00;18.70;;;;;;5120020;28;20207;-81
2022/08/21 13:12:16;;;;;;;0.60;0.60;;;56.10;18.60;;;;;;5121709;28;20206;-81